createdAt,value
2018-06-09T00:00:54.514Z,99.90
2018-06-09T00:03:23.075Z,99.90
2018-06-09T00:05:51.510Z,99.90
2018-06-09T00:08:20.062Z,99.90
2018-06-09T00:10:48.609Z,99.90
2018-06-09T00:13:17.071Z,99.90
2018-06-09T00:30:11.998Z,99.90
2018-06-09T00:35:08.723Z,99.90
2018-06-09T00:37:37.223Z,99.90
2018-06-09T00:40:05.712Z,99.90
2018-06-09T00:42:34.235Z,99.90
2018-06-09T00:45:02.740Z,99.90
2018-06-09T00:47:31.226Z,99.90
2018-06-09T00:49:59.731Z,99.90
2018-06-09T00:52:28.226Z,99.90
2018-06-09T00:54:56.701Z,99.90
2018-06-09T00:57:25.185Z,99.90
2018-06-09T01:02:22.357Z,99.90
2018-06-09T01:04:50.880Z,99.90
2018-06-09T01:07:19.379Z,99.90
2018-06-09T01:09:47.863Z,99.90
2018-06-09T01:12:16.365Z,99.90
2018-06-09T01:14:44.844Z,99.90
2018-06-09T01:17:13.341Z,99.90
2018-06-09T01:19:41.839Z,99.90
2018-06-09T01:24:38.459Z,99.90
2018-06-09T01:27:06.948Z,99.90
2018-06-09T01:29:35.423Z,99.90
2018-06-09T01:32:03.927Z,99.90
2018-06-09T01:34:32.367Z,99.90
2018-06-09T01:37:00.904Z,99.90
2018-06-09T01:41:57.541Z,99.90
2018-06-09T01:44:26.003Z,99.90
2018-06-09T01:46:54.508Z,99.90
2018-06-09T01:49:22.950Z,99.90
2018-06-09T01:51:52.451Z,99.90
2018-06-09T01:54:20.951Z,99.90
2018-06-09T01:56:49.468Z,99.90
2018-06-09T01:59:17.919Z,99.90
2018-06-09T02:01:46.411Z,99.90
2018-06-09T02:04:14.878Z,99.90
2018-06-09T02:06:43.364Z,99.90
2018-06-09T02:09:11.831Z,99.90
2018-06-09T02:11:40.314Z,99.90
2018-06-09T02:14:08.815Z,99.90
2018-06-09T02:16:37.267Z,99.90
2018-06-09T02:19:05.836Z,99.90
2018-06-09T02:21:34.376Z,99.90
2018-06-09T02:24:02.837Z,99.90
2018-06-09T02:26:31.348Z,99.90
2018-06-09T02:31:27.971Z,99.90
2018-06-09T02:33:56.484Z,99.90
2018-06-09T02:41:21.303Z,99.90
2018-06-09T02:43:49.760Z,99.90
2018-06-09T02:46:18.253Z,99.90
2018-06-09T02:48:46.735Z,99.90
2018-06-09T02:51:15.207Z,99.90
2018-06-09T02:53:43.715Z,99.90
2018-06-09T02:56:12.188Z,99.90
2018-06-09T02:58:40.683Z,99.90
2018-06-09T03:01:09.243Z,99.90
2018-06-09T03:03:37.719Z,99.90
2018-06-09T03:06:06.239Z,99.90
2018-06-09T03:08:34.715Z,99.90
2018-06-09T03:11:03.177Z,99.90
2018-06-09T03:13:31.671Z,99.90
2018-06-09T03:16:00.136Z,99.90
2018-06-09T03:18:28.700Z,99.90
2018-06-09T03:20:57.188Z,99.90
2018-06-09T03:23:25.674Z,99.90
2018-06-09T03:25:54.195Z,99.90
2018-06-09T03:28:22.627Z,99.90
2018-06-09T03:30:51.123Z,99.90
2018-06-09T03:33:19.674Z,99.90
2018-06-09T03:35:48.193Z,99.90
2018-06-09T03:38:16.674Z,99.90
2018-06-09T03:40:45.163Z,99.90
2018-06-09T03:43:13.787Z,99.90
2018-06-09T03:45:42.243Z,99.90
2018-06-09T03:48:10.716Z,99.90
2018-06-09T03:50:39.175Z,99.90
2018-06-09T03:53:07.660Z,99.90
2018-06-09T03:55:36.162Z,99.90
2018-06-09T03:58:04.653Z,99.90
2018-06-09T04:00:33.102Z,99.90
2018-06-09T04:03:01.612Z,99.90
2018-06-09T04:05:30.107Z,99.90
2018-06-09T04:07:58.563Z,99.90
2018-06-09T04:10:27.036Z,99.90
2018-06-09T04:12:55.524Z,99.90
2018-06-09T04:15:24.008Z,99.90
2018-06-09T04:17:52.468Z,99.90
2018-06-09T04:20:20.984Z,99.90
2018-06-09T04:22:49.431Z,99.90
2018-06-09T04:25:18.842Z,99.90
2018-06-09T04:27:47.312Z,99.90
2018-06-09T04:30:15.822Z,99.90
2018-06-09T04:32:44.291Z,99.90
2018-06-09T04:35:12.819Z,99.90
2018-06-09T04:40:09.548Z,99.90
2018-06-09T04:42:38.029Z,99.90
2018-06-09T04:45:06.508Z,99.90
2018-06-09T04:47:35.003Z,99.90
2018-06-09T04:50:03.491Z,99.90
2018-06-09T04:52:31.948Z,99.90
2018-06-09T04:55:00.423Z,99.90
2018-06-09T04:57:28.931Z,99.90
2018-06-09T04:59:57.424Z,99.90
2018-06-09T05:09:50.524Z,99.90
2018-06-09T05:12:18.968Z,99.90
2018-06-09T05:14:47.471Z,99.90
2018-06-09T05:17:15.981Z,99.90
2018-06-09T05:19:44.436Z,99.90
2018-06-09T05:22:12.963Z,99.90
2018-06-09T05:24:41.442Z,99.90
2018-06-09T05:27:09.872Z,99.90
2018-06-09T05:29:38.383Z,99.90
2018-06-09T05:34:35.077Z,99.90
2018-06-09T05:37:03.635Z,99.90
2018-06-09T05:42:00.270Z,99.90
2018-06-09T05:44:28.762Z,99.90
2018-06-09T05:46:57.211Z,99.90
2018-06-09T05:49:25.814Z,99.90
2018-06-09T05:51:54.291Z,99.90
2018-06-09T05:54:22.805Z,99.90
2018-06-09T05:59:19.562Z,99.90
2018-06-09T06:01:48.012Z,99.90
2018-06-09T06:04:16.552Z,99.90
2018-06-09T06:06:45.077Z,99.90
2018-06-09T06:09:13.580Z,99.90
2018-06-09T06:11:42.027Z,99.90
2018-06-09T06:14:10.513Z,99.90
2018-06-09T06:16:39.040Z,99.90
2018-06-09T06:19:07.482Z,99.90
2018-06-09T06:21:35.969Z,99.90
2018-06-09T06:24:04.503Z,99.90
2018-06-09T06:26:33.021Z,99.90
2018-06-09T06:29:01.493Z,99.90
2018-06-09T06:31:30.016Z,99.90
2018-06-09T06:36:26.651Z,99.90
2018-06-09T06:38:55.251Z,99.90
2018-06-09T06:41:23.715Z,99.90
2018-06-09T06:43:52.227Z,99.90
2018-06-09T06:51:17.121Z,99.90
2018-06-09T06:53:45.600Z,99.90
2018-06-09T06:56:14.091Z,99.90
2018-06-09T06:58:42.576Z,99.90
2018-06-09T07:01:11.042Z,99.90
2018-06-09T07:03:39.751Z,99.90
2018-06-09T07:06:08.226Z,99.90
2018-06-09T07:08:37.083Z,99.90
2018-06-09T07:11:05.605Z,99.90
2018-06-09T07:13:34.220Z,99.90
2018-06-09T07:16:03.691Z,99.90
2018-06-09T07:18:32.197Z,99.90
2018-06-09T07:25:57.174Z,99.90
2018-06-09T07:28:25.731Z,99.90
2018-06-09T07:30:54.209Z,99.90
2018-06-09T07:33:22.817Z,99.90
2018-06-09T07:35:51.419Z,99.90
2018-06-09T07:38:19.943Z,99.90
2018-06-09T07:40:48.440Z,99.90
2018-06-09T07:48:15.264Z,99.90
2018-06-09T07:53:13.432Z,99.90
2018-06-09T07:55:42.008Z,99.90
2018-06-09T07:58:10.419Z,99.90
2018-06-09T08:00:38.945Z,99.90
2018-06-09T08:08:04.196Z,99.90
2018-06-09T08:15:29.549Z,99.90
2018-06-09T08:17:58.108Z,99.90
2018-06-09T08:20:26.631Z,99.90
2018-06-09T08:22:55.182Z,99.90
2018-06-09T08:27:52.165Z,99.90
2018-06-09T08:30:20.622Z,99.90
2018-06-09T08:35:17.443Z,99.90
2018-06-09T08:37:45.907Z,99.90
2018-06-09T08:40:14.427Z,99.90
2018-06-09T08:42:42.879Z,99.90
2018-06-09T08:45:11.418Z,99.90
2018-06-09T08:50:08.088Z,99.90
2018-06-09T08:52:36.548Z,99.90
2018-06-09T08:55:05.052Z,99.90
2018-06-09T08:57:33.736Z,99.90
2018-06-09T09:00:02.176Z,99.90
2018-06-09T09:02:30.747Z,99.90
2018-06-09T09:04:59.223Z,99.90
2018-06-09T09:07:28.782Z,99.90
2018-06-09T09:09:57.215Z,99.90
2018-06-09T09:12:25.874Z,99.90
2018-06-09T09:14:54.432Z,99.90
2018-06-09T09:17:24.517Z,99.90
2018-06-09T09:19:53.083Z,99.90
2018-06-09T09:22:21.671Z,99.90
2018-06-09T09:24:51.204Z,99.90
2018-06-09T09:27:19.775Z,99.90
2018-06-09T09:29:48.456Z,99.90
2018-06-09T09:32:16.989Z,99.90
2018-06-09T09:34:45.467Z,99.90
2018-06-09T09:37:14.196Z,99.90
2018-06-09T09:39:43.495Z,99.90
2018-06-09T09:42:12.029Z,99.90
2018-06-09T09:44:40.538Z,99.90
2018-06-09T09:47:09.109Z,99.90
2018-06-09T09:49:37.604Z,99.90
2018-06-09T09:52:06.459Z,99.90
2018-06-09T09:57:03.433Z,99.90
2018-06-09T10:02:00.223Z,99.90
2018-06-09T10:07:05.148Z,99.90
2018-06-09T10:12:01.812Z,99.90
2018-06-09T10:14:30.315Z,99.90
2018-06-09T10:16:58.992Z,99.90
2018-06-09T10:19:27.540Z,99.90
2018-06-09T10:21:56.069Z,99.90
2018-06-09T10:24:24.583Z,99.90
2018-06-09T10:26:53.089Z,99.90
2018-06-09T10:31:50.088Z,99.90
2018-06-09T10:34:18.727Z,99.90
2018-06-09T10:36:47.679Z,99.90
2018-06-09T10:39:16.269Z,99.90
2018-06-09T10:41:44.983Z,99.90
2018-06-09T10:44:14.265Z,99.90
2018-06-09T10:46:42.827Z,99.90
2018-06-09T10:49:11.455Z,99.90
2018-06-09T10:51:40.030Z,99.90
2018-06-09T10:54:08.728Z,99.90
2018-06-09T10:56:37.304Z,99.90
2018-06-09T10:59:06.271Z,99.90
2018-06-09T11:01:35.440Z,99.90
2018-06-09T11:04:04.455Z,99.90
2018-06-09T11:06:33.775Z,99.90
2018-06-09T11:09:02.548Z,99.90
2018-06-09T11:11:31.517Z,99.90
2018-06-09T11:14:00.077Z,99.90
2018-06-09T11:26:22.304Z,99.90
2018-06-09T11:28:51.316Z,99.90
2018-06-09T11:31:19.959Z,99.90
2018-06-09T11:33:48.659Z,99.90
2018-06-09T11:38:46.059Z,99.90
2018-06-09T11:41:14.921Z,99.90
2018-06-09T11:43:43.948Z,99.90
2018-06-09T11:46:12.552Z,99.90
2018-06-09T11:48:41.615Z,99.90
2018-06-09T11:51:10.786Z,99.90
2018-06-09T11:56:08.093Z,99.90
2018-06-09T11:58:36.791Z,99.90
2018-06-09T12:01:05.350Z,99.90
2018-06-09T12:03:34.360Z,99.90
2018-06-09T12:06:02.880Z,99.90
2018-06-09T12:08:31.381Z,99.90
2018-06-09T12:10:59.952Z,99.90
2018-06-09T12:13:28.871Z,99.90
2018-06-09T12:15:57.378Z,99.90
2018-06-09T12:18:26.778Z,99.90
2018-06-09T12:20:55.247Z,99.50
2018-06-09T12:25:51.972Z,98.90
2018-06-09T12:28:20.583Z,98.50
2018-06-09T12:33:17.251Z,98.40
2018-06-09T12:35:45.858Z,98.30
2018-06-09T12:38:14.447Z,98.40
2018-06-09T12:40:42.981Z,98.20
2018-06-09T12:43:11.519Z,98.50
2018-06-09T12:45:41.727Z,97.80
2018-06-09T12:48:10.362Z,97.00
2018-06-09T12:50:38.956Z,97.40
2018-06-09T12:53:07.516Z,95.70
2018-06-09T12:55:36.016Z,95.50
2018-06-09T12:58:04.588Z,94.90
2018-06-09T13:00:33.212Z,95.50
2018-06-09T13:03:01.727Z,95.10
2018-06-09T13:05:30.266Z,95.10
2018-06-09T13:07:58.703Z,94.30
2018-06-09T13:10:27.443Z,94.30
2018-06-09T13:17:52.252Z,94.00
2018-06-09T13:20:20.757Z,93.50
2018-06-09T13:22:49.257Z,94.50
2018-06-09T13:25:17.854Z,93.50
2018-06-09T13:27:46.387Z,94.30
2018-06-09T13:32:43.397Z,93.00
2018-06-09T13:35:12.016Z,94.20
2018-06-09T13:37:40.989Z,93.30
2018-06-09T13:40:09.555Z,93.30
2018-06-09T13:42:38.140Z,92.80
2018-06-09T13:45:06.665Z,92.70
2018-06-09T13:47:35.152Z,93.20
2018-06-09T13:50:03.711Z,93.40
2018-06-09T13:52:32.231Z,93.90
2018-06-09T13:55:00.752Z,93.60
2018-06-09T13:57:29.302Z,93.20
2018-06-09T14:04:54.119Z,91.90
2018-06-09T14:07:22.609Z,91.90
2018-06-09T14:09:51.234Z,91.80
2018-06-09T14:12:19.755Z,91.80
2018-06-09T14:14:48.243Z,91.90
2018-06-09T14:17:16.843Z,91.90
2018-06-09T14:19:45.597Z,92.20
2018-06-09T14:22:14.108Z,91.70
2018-06-09T14:24:42.562Z,92.50
2018-06-09T14:27:11.072Z,93.50
2018-06-09T14:29:39.532Z,94.00
2018-06-09T14:32:08.067Z,94.30
2018-06-09T14:34:36.561Z,94.70
2018-06-09T14:37:05.151Z,95.50
2018-06-09T14:39:33.648Z,95.70
2018-06-09T14:42:02.148Z,96.80
2018-06-09T14:44:30.655Z,97.30
2018-06-09T14:46:59.338Z,97.10
2018-06-09T14:49:27.816Z,96.60
2018-06-09T14:51:56.280Z,97.50
2018-06-09T14:54:24.879Z,98.10
2018-06-09T14:56:53.327Z,97.80
2018-06-09T14:59:21.841Z,98.20
2018-06-09T15:01:50.578Z,97.90
2018-06-09T15:04:19.127Z,98.50
2018-06-09T15:06:47.600Z,98.40
2018-06-09T15:09:16.084Z,98.20
2018-06-09T15:11:44.613Z,98.60
2018-06-09T15:14:13.053Z,98.30
2018-06-09T15:16:41.548Z,98.50
2018-06-09T15:19:09.995Z,97.90
2018-06-09T15:21:38.533Z,98.70
2018-06-09T15:24:07.099Z,98.20
2018-06-09T15:29:03.925Z,98.80
2018-06-09T15:31:32.580Z,98.80
2018-06-09T15:34:01.180Z,99.00
2018-06-09T15:36:29.712Z,99.90
2018-06-09T15:38:58.192Z,99.00
2018-06-09T15:43:55.575Z,98.90
2018-06-09T15:46:24.056Z,98.50
2018-06-09T15:48:52.768Z,98.50
2018-06-09T15:51:21.344Z,98.50
2018-06-09T15:53:49.947Z,98.60
2018-06-09T15:56:19.492Z,98.70
2018-06-09T15:58:47.980Z,99.10
2018-06-09T16:01:16.488Z,99.60
2018-06-09T16:06:13.295Z,98.80
2018-06-09T16:08:41.865Z,98.80
2018-06-09T16:11:10.489Z,98.80
2018-06-09T18:01:13.507Z,99.90
2018-06-09T18:03:41.971Z,99.90
2018-06-09T18:06:10.471Z,99.90
2018-06-09T18:08:38.954Z,99.90
2018-06-09T18:11:07.557Z,99.90
2018-06-09T18:16:04.435Z,99.90
2018-06-09T18:18:32.869Z,99.90
2018-06-09T18:21:01.360Z,99.90
2018-06-09T18:23:29.894Z,99.90
2018-06-09T18:25:58.389Z,99.90
2018-06-09T18:28:26.878Z,99.90
2018-06-09T18:30:55.403Z,99.90
2018-06-09T18:33:23.859Z,99.90
2018-06-09T18:35:52.344Z,99.90
2018-06-09T18:38:20.886Z,99.90
2018-06-09T18:40:49.381Z,99.90
2018-06-09T18:43:17.913Z,99.90
2018-06-09T18:45:46.451Z,99.90
2018-06-09T18:48:15.020Z,99.90
2018-06-09T18:50:43.478Z,99.90
2018-06-09T18:53:11.936Z,99.90
2018-06-09T18:55:40.514Z,99.90
2018-06-09T18:58:09.163Z,99.90
2018-06-09T19:00:37.751Z,99.90
2018-06-09T19:03:06.344Z,99.90
2018-06-09T19:05:34.871Z,99.90
2018-06-09T19:08:03.400Z,99.90
2018-06-09T19:10:32.084Z,99.90
2018-06-09T19:13:00.575Z,99.90
2018-06-09T19:15:29.115Z,99.90
2018-06-09T19:20:25.955Z,99.90
2018-06-09T19:22:54.479Z,99.90
2018-06-09T19:25:22.960Z,99.90
2018-06-09T19:27:51.418Z,99.90
2018-06-09T19:30:19.944Z,99.90
2018-06-09T19:32:48.847Z,99.90
2018-06-09T19:35:17.356Z,99.90
2018-06-09T19:37:45.983Z,99.90
2018-06-09T19:40:14.426Z,99.90
2018-06-09T19:42:42.903Z,99.90
2018-06-09T19:45:11.417Z,99.90
2018-06-09T19:50:08.115Z,99.90
2018-06-09T19:52:36.699Z,99.90
2018-06-09T19:55:05.510Z,99.90
2018-06-09T19:57:34.163Z,99.90
2018-06-09T20:00:02.685Z,99.90
2018-06-09T20:02:31.247Z,99.90
2018-06-09T20:04:59.748Z,99.90
2018-06-09T20:07:28.288Z,99.90
2018-06-09T20:09:56.824Z,99.90
2018-06-09T20:12:25.315Z,99.90
2018-06-09T20:14:53.810Z,99.90
2018-06-09T20:17:22.265Z,99.90
2018-06-09T20:19:50.806Z,99.90
2018-06-09T20:22:19.332Z,99.90
2018-06-09T20:24:47.871Z,99.90
2018-06-09T20:27:16.494Z,99.90
2018-06-09T20:29:45.049Z,99.90
2018-06-09T20:32:13.622Z,99.90
2018-06-09T20:34:42.236Z,99.90
2018-06-09T20:37:10.807Z,99.90
2018-06-09T20:39:39.478Z,99.90
2018-06-09T20:42:08.228Z,99.90
2018-06-09T20:44:36.999Z,99.90
2018-06-09T20:47:05.728Z,99.90
2018-06-09T20:49:34.327Z,99.90
2018-06-09T20:52:02.939Z,99.90
2018-06-09T20:54:31.476Z,99.90
2018-06-09T20:57:00.503Z,99.90
2018-06-09T20:59:29.043Z,99.90
2018-06-09T21:04:25.855Z,99.90
2018-06-09T21:06:54.414Z,99.90
2018-06-09T21:09:22.971Z,99.90
2018-06-09T21:21:44.145Z,99.90
2018-06-09T21:26:46.132Z,99.90
2018-06-09T21:29:19.792Z,99.90
2018-06-09T21:31:48.292Z,99.90
2018-06-09T21:34:32.283Z,99.90
2018-06-09T21:37:06.309Z,99.90
2018-06-09T21:39:40.110Z,99.90
2018-06-09T21:42:13.915Z,99.90
2018-06-09T21:44:52.604Z,99.90
2018-06-09T21:49:49.743Z,99.90
2018-06-09T21:52:18.347Z,99.90
2018-06-09T21:54:46.821Z,99.90
2018-06-09T21:57:15.319Z,99.90
2018-06-09T21:59:43.764Z,99.90
2018-06-09T22:02:12.285Z,99.90
2018-06-09T22:07:08.933Z,99.90
2018-06-09T22:09:37.415Z,99.90
2018-06-09T22:12:05.872Z,99.90
2018-06-09T22:14:34.435Z,99.90
2018-06-09T22:17:03.001Z,99.90
2018-06-09T22:19:31.590Z,99.90
2018-06-09T22:22:00.147Z,99.90
2018-06-09T22:24:28.568Z,99.90
2018-06-09T22:26:57.104Z,99.90
2018-06-09T22:29:25.563Z,99.90
2018-06-09T22:31:54.071Z,99.90
2018-06-09T22:39:18.843Z,99.90
2018-06-09T22:41:47.526Z,99.90
2018-06-09T22:44:15.939Z,99.90
2018-06-09T22:46:44.522Z,99.90
2018-06-09T22:49:12.987Z,99.90
2018-06-09T22:51:41.462Z,99.90
2018-06-09T22:54:09.987Z,99.90
2018-06-09T22:56:38.523Z,99.90
2018-06-09T22:59:07.347Z,99.90
2018-06-09T23:01:35.817Z,99.90
2018-06-09T23:04:04.455Z,99.90
2018-06-09T23:06:33.139Z,99.90
2018-06-09T23:09:02.251Z,99.90
2018-06-09T23:11:31.198Z,99.90
2018-06-09T23:13:59.696Z,99.90
2018-06-09T23:18:56.656Z,99.90
2018-06-09T23:21:25.343Z,99.90
2018-06-09T23:26:22.147Z,99.90
2018-06-09T23:28:50.689Z,99.90
2018-06-09T23:36:15.487Z,99.90
2018-06-09T23:38:43.968Z,99.90
2018-06-09T23:41:12.563Z,99.90
2018-06-09T23:43:41.032Z,99.90
2018-06-09T23:46:09.503Z,99.90
2018-06-09T23:48:37.989Z,99.90
2018-06-09T23:51:06.545Z,99.90
2018-06-09T23:53:35.058Z,99.90
2018-06-09T23:56:03.567Z,99.90
2018-06-09T23:58:32.035Z,99.90
